createdAt,value
2023-03-17T00:01:38.188Z,9.38
2023-03-17T00:04:06.188Z,9.39
2023-03-17T00:06:33.917Z,9.38
2023-03-17T00:09:00.553Z,9.38
2023-03-17T00:11:27.857Z,9.38
2023-03-17T00:13:54.715Z,9.39
2023-03-17T00:16:27.282Z,9.42
2023-03-17T00:18:55.110Z,9.42
2023-03-17T00:21:30.741Z,9.43
2023-03-17T00:23:59.616Z,9.45
2023-03-17T00:26:27.859Z,9.45
2023-03-17T00:28:55.357Z,9.43
2023-03-17T00:31:29.478Z,9.39
2023-03-17T00:33:57.153Z,9.39
2023-03-17T00:36:28.422Z,9.38
2023-03-17T00:38:55.774Z,9.39
2023-03-17T00:41:22.776Z,9.39
2023-03-17T00:43:50.727Z,9.41
2023-03-17T00:46:38.163Z,9.37
2023-03-17T00:49:19.504Z,9.33
2023-03-17T00:51:47.446Z,9.32
2023-03-17T00:54:14.538Z,9.23
2023-03-17T00:56:42.568Z,9.21
2023-03-17T00:59:20.836Z,9.18
2023-03-17T01:01:49.304Z,9.10
2023-03-17T01:04:16.373Z,9.02
2023-03-17T01:06:43.343Z,9.01
2023-03-17T01:09:14.776Z,8.95
2023-03-17T01:11:42.722Z,9.00
2023-03-17T01:14:11.172Z,8.95
2023-03-17T01:16:38.798Z,8.87
2023-03-17T01:19:05.965Z,8.87
2023-03-17T01:21:32.813Z,8.85
2023-03-17T01:24:00.537Z,8.86
2023-03-17T01:26:27.450Z,8.84
2023-03-17T01:28:54.766Z,8.82
2023-03-17T01:31:21.467Z,8.82
2023-03-17T01:33:48.069Z,8.81
2023-03-17T01:36:15.726Z,8.79
2023-03-17T01:38:42.362Z,8.78
2023-03-17T01:41:09.235Z,8.74
2023-03-17T01:43:36.683Z,8.67
2023-03-17T01:46:36.696Z,8.60
2023-03-17T01:49:31.551Z,8.53
2023-03-17T01:52:15.599Z,8.42
2023-03-17T01:54:50.421Z,8.34
2023-03-17T01:57:25.471Z,8.25
2023-03-17T02:00:08.170Z,8.14
2023-03-17T02:02:38.280Z,8.05
2023-03-17T02:05:09.518Z,8.04
2023-03-17T02:07:37.861Z,8.04
2023-03-17T02:10:06.432Z,8.04
2023-03-17T02:12:35.720Z,8.00
2023-03-17T02:15:03.347Z,7.97
2023-03-17T02:17:30.035Z,7.96
2023-03-17T02:19:57.058Z,8.05
2023-03-17T02:22:24.071Z,8.11
2023-03-17T02:24:57.828Z,8.22
2023-03-17T02:27:31.295Z,8.32
2023-03-17T02:29:58.266Z,8.35
2023-03-17T02:32:25.606Z,8.39
2023-03-17T02:34:52.257Z,8.45
2023-03-17T02:37:20.243Z,8.51
2023-03-17T02:39:46.900Z,8.60
2023-03-17T02:42:14.089Z,8.68
2023-03-17T02:44:40.976Z,8.70
2023-03-17T02:47:08.643Z,8.76
2023-03-17T02:49:37.383Z,8.76
2023-03-17T02:52:04.896Z,8.73
2023-03-17T02:54:31.914Z,8.70
2023-03-17T02:56:59.162Z,8.70
2023-03-17T02:59:26.657Z,8.67
2023-03-17T03:01:53.887Z,8.67
2023-03-17T03:04:21.063Z,8.70
2023-03-17T03:06:48.328Z,8.67
2023-03-17T03:09:15.432Z,8.70
2023-03-17T03:11:42.883Z,8.70
2023-03-17T03:14:11.140Z,8.70
2023-03-17T03:16:38.436Z,8.69
2023-03-17T03:19:05.415Z,8.71
2023-03-17T03:21:32.282Z,8.68
2023-03-17T03:23:58.962Z,8.69
2023-03-17T03:26:25.693Z,8.60
2023-03-17T03:28:52.334Z,8.61
2023-03-17T03:31:18.943Z,8.57
2023-03-17T03:33:46.078Z,8.56
2023-03-17T03:36:13.471Z,8.51
2023-03-17T03:38:40.176Z,8.52
2023-03-17T03:41:07.361Z,8.52
2023-03-17T03:43:35.030Z,8.50
2023-03-17T03:46:04.028Z,8.54
2023-03-17T03:48:30.870Z,8.54
2023-03-17T03:51:02.084Z,8.58
2023-03-17T03:53:29.410Z,8.60
2023-03-17T03:55:56.555Z,8.63
2023-03-17T03:58:23.544Z,8.64
2023-03-17T04:00:50.436Z,8.67
2023-03-17T04:03:17.286Z,8.67
2023-03-17T04:05:43.946Z,8.68
2023-03-17T04:08:11.430Z,8.67
2023-03-17T04:10:38.284Z,8.65
2023-03-17T04:13:05.150Z,8.67
2023-03-17T04:15:31.753Z,8.70
2023-03-17T04:17:58.408Z,8.69
2023-03-17T04:20:25.053Z,8.72
2023-03-17T04:22:51.818Z,8.72
2023-03-17T04:25:18.721Z,8.71
2023-03-17T04:27:45.413Z,8.68
2023-03-17T04:30:16.959Z,8.59
2023-03-17T04:32:44.557Z,8.53
2023-03-17T04:35:16.809Z,8.46
2023-03-17T04:37:44.134Z,8.45
2023-03-17T04:40:12.998Z,8.42
2023-03-17T04:42:40.560Z,8.35
2023-03-17T04:45:09.488Z,8.30
2023-03-17T04:47:36.160Z,8.30
2023-03-17T04:50:03.852Z,8.24
2023-03-17T04:52:31.154Z,8.20
2023-03-17T04:54:57.817Z,8.13
2023-03-17T04:57:24.608Z,8.10
2023-03-17T04:59:51.793Z,8.04
2023-03-17T05:02:19.468Z,8.04
2023-03-17T05:04:47.828Z,8.02
2023-03-17T05:07:15.090Z,8.01
2023-03-17T05:09:42.026Z,8.02
2023-03-17T05:12:09.953Z,8.04
2023-03-17T05:14:37.265Z,8.07
2023-03-17T05:17:03.986Z,8.07
2023-03-17T05:19:30.764Z,8.08
2023-03-17T05:21:57.424Z,8.07
2023-03-17T05:24:24.019Z,8.04
2023-03-17T05:26:50.697Z,8.05
2023-03-17T05:29:17.354Z,7.96
2023-03-17T05:31:44.397Z,7.98
2023-03-17T05:34:11.794Z,7.96
2023-03-17T05:36:38.603Z,7.94
2023-03-17T05:39:05.319Z,7.96
2023-03-17T05:41:32.063Z,7.96
2023-03-17T05:43:58.745Z,7.93
2023-03-17T05:46:26.619Z,7.93
2023-03-17T05:48:53.316Z,7.91
2023-03-17T05:51:20.540Z,7.86
2023-03-17T05:53:47.303Z,7.88
2023-03-17T05:56:14.765Z,7.83
2023-03-17T05:58:41.672Z,7.83
2023-03-17T06:01:08.288Z,7.79
2023-03-17T06:03:34.974Z,7.81
2023-03-17T06:06:01.676Z,7.80
2023-03-17T06:08:28.293Z,7.84
2023-03-17T06:10:54.979Z,7.86
2023-03-17T06:13:21.600Z,7.86
2023-03-17T06:15:51.446Z,7.87
2023-03-17T06:18:19.823Z,7.85
2023-03-17T06:20:46.935Z,7.78
2023-03-17T06:23:13.803Z,7.75
2023-03-17T06:25:40.533Z,7.72
2023-03-17T06:28:07.193Z,7.70
2023-03-17T06:30:35.713Z,7.68
2023-03-17T06:33:04.070Z,7.65
2023-03-17T06:35:32.077Z,7.67
2023-03-17T06:37:58.995Z,7.68
2023-03-17T06:40:26.240Z,7.67
2023-03-17T06:42:53.698Z,7.73
2023-03-17T06:45:20.559Z,7.73
2023-03-17T06:47:47.173Z,7.75
2023-03-17T06:50:14.165Z,7.78
2023-03-17T06:52:40.981Z,7.81
2023-03-17T06:55:08.640Z,7.84
2023-03-17T06:57:35.845Z,7.83
2023-03-17T07:00:05.158Z,7.80
2023-03-17T07:02:34.013Z,7.82
2023-03-17T07:05:01.380Z,7.80
2023-03-17T07:07:28.496Z,7.83
2023-03-17T07:09:55.439Z,7.84
2023-03-17T07:12:22.035Z,7.84
2023-03-17T07:14:48.653Z,7.87
2023-03-17T07:17:15.334Z,7.91
2023-03-17T07:19:42.489Z,7.92
2023-03-17T07:22:12.197Z,7.95
2023-03-17T07:24:39.686Z,7.96
2023-03-17T07:27:06.423Z,7.99
2023-03-17T07:29:34.044Z,7.98
2023-03-17T07:32:02.136Z,7.97
2023-03-17T07:34:29.429Z,7.95
2023-03-17T07:36:56.052Z,7.92
2023-03-17T07:39:22.710Z,7.88
2023-03-17T07:41:55.125Z,7.88
2023-03-17T07:44:23.148Z,7.94
2023-03-17T07:46:51.592Z,8.00
2023-03-17T07:49:34.039Z,8.08
2023-03-17T07:52:05.830Z,8.19
2023-03-17T07:54:32.671Z,8.27
2023-03-17T07:56:59.444Z,8.35
2023-03-17T07:59:27.623Z,8.43
2023-03-17T08:01:54.824Z,8.46
2023-03-17T08:04:21.490Z,8.53
2023-03-17T08:06:48.168Z,8.55
2023-03-17T08:09:15.038Z,8.55
2023-03-17T08:11:41.762Z,8.64
2023-03-17T08:14:09.531Z,8.69
2023-03-17T08:16:36.329Z,8.70
2023-03-17T08:19:04.238Z,8.72
2023-03-17T08:21:31.048Z,8.79
2023-03-17T08:23:57.741Z,8.87
2023-03-17T08:26:24.702Z,8.89
2023-03-17T08:28:51.414Z,8.90
2023-03-17T08:31:20.336Z,9.01
2023-03-17T08:33:53.152Z,9.12
2023-03-17T08:36:21.453Z,9.29
2023-03-17T08:38:48.752Z,9.42
2023-03-17T08:41:21.926Z,9.57
2023-03-17T08:43:48.854Z,9.72
2023-03-17T08:46:24.762Z,9.84
2023-03-17T08:48:54.204Z,9.91
2023-03-17T08:51:24.492Z,10.02
2023-03-17T08:53:52.794Z,10.07
2023-03-17T08:56:19.891Z,10.11
2023-03-17T08:58:48.912Z,10.04
2023-03-17T09:01:16.730Z,9.97
2023-03-17T09:03:44.108Z,9.90
2023-03-17T09:06:12.413Z,9.86
2023-03-17T09:08:45.333Z,9.93
2023-03-17T09:11:16.626Z,9.97
2023-03-17T09:13:44.333Z,10.08
2023-03-17T09:16:11.041Z,10.14
2023-03-17T09:18:38.222Z,10.16
2023-03-17T09:21:05.906Z,10.23
2023-03-17T09:23:33.680Z,10.26
2023-03-17T09:26:01.233Z,10.29
2023-03-17T09:28:29.120Z,10.37
2023-03-17T09:30:59.750Z,10.41
2023-03-17T09:33:27.222Z,10.53
2023-03-17T09:35:56.944Z,10.58
2023-03-17T09:38:25.933Z,10.64
2023-03-17T09:41:23.888Z,10.73
2023-03-17T09:44:29.415Z,10.86
2023-03-17T09:46:56.031Z,11.04
2023-03-17T09:49:28.888Z,11.15
2023-03-17T09:51:56.181Z,11.19
2023-03-17T09:54:34.056Z,11.30
2023-03-17T09:57:06.194Z,11.43
2023-03-17T09:59:36.883Z,11.48
2023-03-17T10:02:16.585Z,11.37
2023-03-17T10:04:45.018Z,11.45
2023-03-17T10:07:16.998Z,11.64
2023-03-17T10:09:53.638Z,11.91
2023-03-17T10:12:39.578Z,12.02
2023-03-17T10:15:18.483Z,12.10
2023-03-17T10:17:46.205Z,12.13
2023-03-17T10:20:21.765Z,11.92
2023-03-17T10:22:54.799Z,11.95
2023-03-17T10:25:22.601Z,12.09
2023-03-17T10:28:21.938Z,12.22
2023-03-17T10:30:48.765Z,12.26
2023-03-17T10:33:16.134Z,12.22
2023-03-17T10:35:44.905Z,12.15
2023-03-17T10:38:19.514Z,12.18
2023-03-17T10:40:54.669Z,12.09
2023-03-17T10:43:22.281Z,12.08
2023-03-17T10:46:04.353Z,12.10
2023-03-17T10:48:36.837Z,12.13
2023-03-17T10:51:22.300Z,12.20
2023-03-17T10:53:54.233Z,12.22
2023-03-17T10:56:27.416Z,12.28
2023-03-17T10:58:55.633Z,12.24
2023-03-17T11:01:29.794Z,12.25
2023-03-17T11:03:58.629Z,12.28
2023-03-17T11:06:42.021Z,12.39
2023-03-17T11:09:16.884Z,12.52
2023-03-17T11:11:48.843Z,12.57
2023-03-17T11:14:19.705Z,12.61
2023-03-17T11:16:55.809Z,12.79
2023-03-17T11:19:37.490Z,12.77
2023-03-17T11:22:13.492Z,12.78
2023-03-17T11:25:11.920Z,12.71
2023-03-17T11:27:55.499Z,12.57
2023-03-17T11:30:37.679Z,12.45
2023-03-17T11:33:17.350Z,12.48
2023-03-17T11:36:04.035Z,12.48
2023-03-17T11:38:37.342Z,12.56
2023-03-17T11:41:04.980Z,12.62
2023-03-17T11:43:53.034Z,12.63
2023-03-17T11:46:31.475Z,12.79
2023-03-17T11:49:18.904Z,12.74
2023-03-17T11:51:52.169Z,12.87
2023-03-17T11:54:24.802Z,12.86
2023-03-17T11:56:56.824Z,12.62
2023-03-17T11:59:36.300Z,12.54
2023-03-17T12:02:07.134Z,12.56
2023-03-17T12:04:39.275Z,12.58
2023-03-17T12:07:26.666Z,12.72
2023-03-17T12:10:06.165Z,12.79
2023-03-17T12:12:42.997Z,12.95
2023-03-17T12:15:14.817Z,13.17
2023-03-17T12:18:27.071Z,13.18
2023-03-17T12:21:36.640Z,13.09
2023-03-17T12:24:20.121Z,13.25
2023-03-17T12:27:20.686Z,13.38
2023-03-17T12:29:53.350Z,13.48
2023-03-17T12:32:37.031Z,13.48
2023-03-17T12:35:26.312Z,13.47
2023-03-17T12:37:54.658Z,13.50
2023-03-17T12:40:33.710Z,13.59
2023-03-17T12:43:15.806Z,13.49
2023-03-17T12:46:36.341Z,13.58
2023-03-17T12:49:30.554Z,13.65
2023-03-17T12:52:17.149Z,13.77
2023-03-17T12:54:49.178Z,13.84
2023-03-17T12:57:21.452Z,13.68
2023-03-17T12:59:56.572Z,13.80
2023-03-17T13:02:28.937Z,13.73
2023-03-17T13:05:00.705Z,13.65
2023-03-17T13:07:34.497Z,13.54
2023-03-17T13:10:02.075Z,13.71
2023-03-17T13:12:40.542Z,13.90
2023-03-17T13:15:25.670Z,13.92
2023-03-17T13:18:12.253Z,13.92
2023-03-17T13:20:53.836Z,13.94
2023-03-17T13:23:22.081Z,13.83
2023-03-17T13:25:55.488Z,13.66
2023-03-17T13:28:34.808Z,13.58
2023-03-17T13:31:32.142Z,13.54
2023-03-17T13:34:16.547Z,13.68
2023-03-17T13:36:56.038Z,13.74
2023-03-17T13:39:53.543Z,13.67
2023-03-17T13:42:43.370Z,13.71
2023-03-17T13:45:22.105Z,13.65
2023-03-17T13:47:52.422Z,13.60
2023-03-17T13:50:22.164Z,13.55
2023-03-17T13:52:56.228Z,13.47
2023-03-17T13:55:23.762Z,13.50
2023-03-17T13:58:22.525Z,13.56
2023-03-17T14:00:57.939Z,13.57
2023-03-17T14:03:44.699Z,13.56
2023-03-17T14:06:12.928Z,13.50
2023-03-17T14:08:44.458Z,13.47
2023-03-17T14:11:29.008Z,13.61
2023-03-17T14:14:06.058Z,13.74
2023-03-17T14:16:37.560Z,13.84
2023-03-17T14:19:31.204Z,13.90
2023-03-17T14:22:21.375Z,13.82
2023-03-17T14:24:52.534Z,13.69
2023-03-17T14:27:19.947Z,13.79
2023-03-17T14:29:47.448Z,13.86
2023-03-17T14:32:17.647Z,13.94
2023-03-17T14:34:54.412Z,13.96
2023-03-17T14:37:20.982Z,13.86
2023-03-17T14:39:52.248Z,13.84
2023-03-17T14:42:26.417Z,13.80
2023-03-17T14:45:06.693Z,13.74
2023-03-17T14:47:43.467Z,13.66
2023-03-17T14:50:18.151Z,13.64
2023-03-17T14:52:44.931Z,13.63
2023-03-17T14:55:15.575Z,13.62
2023-03-17T14:57:42.848Z,13.57
2023-03-17T15:00:32.011Z,13.52
2023-03-17T15:03:00.551Z,13.46
2023-03-17T15:05:39.948Z,13.52
2023-03-17T15:08:43.289Z,13.61
2023-03-17T15:11:25.811Z,13.79
2023-03-17T15:14:13.732Z,13.77
2023-03-17T15:16:50.057Z,13.77
2023-03-17T15:19:24.055Z,13.75
2023-03-17T15:21:50.840Z,13.82
2023-03-17T15:24:33.121Z,13.87
2023-03-17T15:27:05.591Z,13.97
2023-03-17T15:29:32.439Z,13.97
2023-03-17T15:32:15.335Z,14.00
2023-03-17T15:34:42.526Z,14.04
2023-03-17T15:37:17.624Z,13.96
2023-03-17T15:39:44.303Z,13.93
2023-03-17T15:42:11.079Z,13.86
2023-03-17T15:44:37.717Z,13.86
2023-03-17T15:47:04.455Z,13.85
2023-03-17T15:49:31.197Z,13.81
2023-03-17T15:51:57.865Z,13.73
2023-03-17T15:54:24.507Z,13.68
2023-03-17T15:56:52.110Z,13.66
2023-03-17T15:59:18.754Z,13.59
2023-03-17T16:01:45.652Z,13.51
2023-03-17T16:04:12.802Z,13.46
2023-03-17T16:06:40.456Z,13.38
2023-03-17T16:09:15.070Z,13.30
2023-03-17T16:11:41.703Z,13.26
2023-03-17T16:14:10.306Z,13.16
2023-03-17T16:16:39.786Z,13.11
2023-03-17T16:19:10.264Z,13.04
2023-03-17T16:21:37.373Z,12.93
2023-03-17T16:24:04.196Z,12.88
2023-03-17T16:26:31.123Z,12.76
2023-03-17T16:28:58.304Z,12.58
2023-03-17T16:31:29.452Z,12.49
2023-03-17T16:33:56.832Z,12.33
2023-03-17T16:36:24.607Z,12.36
2023-03-17T16:38:52.765Z,12.30
2023-03-17T16:41:22.755Z,12.33
2023-03-17T16:43:52.164Z,12.33
2023-03-17T16:46:20.381Z,12.30
2023-03-17T16:48:49.879Z,12.32
2023-03-17T16:51:16.922Z,12.34
2023-03-17T16:53:44.150Z,12.29
2023-03-17T16:56:18.012Z,12.29
2023-03-17T16:58:47.466Z,12.25
2023-03-17T17:01:17.922Z,12.27
2023-03-17T17:03:44.671Z,12.25
2023-03-17T17:06:14.342Z,12.19
2023-03-17T17:08:45.348Z,12.16
2023-03-17T17:11:13.878Z,12.14
2023-03-17T17:13:45.484Z,12.08
2023-03-17T17:16:27.650Z,11.99
2023-03-17T17:18:54.842Z,11.98
2023-03-17T17:21:21.625Z,11.91
2023-03-17T17:23:48.418Z,11.90
2023-03-17T17:26:15.433Z,11.90
2023-03-17T17:28:42.093Z,11.93
2023-03-17T17:31:09.123Z,11.95
2023-03-17T17:33:36.955Z,11.95
2023-03-17T17:36:06.553Z,11.96
2023-03-17T17:38:33.363Z,11.91
2023-03-17T17:41:05.876Z,11.84
2023-03-17T17:43:32.850Z,11.76
2023-03-17T17:45:59.566Z,11.72
2023-03-17T17:48:27.280Z,11.66
2023-03-17T17:50:56.131Z,11.58
2023-03-17T17:53:22.793Z,11.47
2023-03-17T17:55:50.063Z,11.42
2023-03-17T17:58:20.424Z,11.34
2023-03-17T18:00:47.349Z,11.33
2023-03-17T18:03:14.005Z,11.21
2023-03-17T18:05:40.738Z,11.18
2023-03-17T18:08:07.765Z,11.10
2023-03-17T18:10:34.958Z,11.12
2023-03-17T18:13:01.807Z,11.06
2023-03-17T18:15:28.980Z,11.05
2023-03-17T18:17:57.819Z,10.98
2023-03-17T18:20:25.796Z,10.98
2023-03-17T18:22:52.910Z,10.90
2023-03-17T18:25:20.317Z,10.83
2023-03-17T18:27:47.820Z,10.83
2023-03-17T18:30:26.395Z,10.81
2023-03-17T18:32:57.301Z,10.77
2023-03-17T18:35:27.174Z,10.74
2023-03-17T18:37:55.430Z,10.71
2023-03-17T18:40:24.151Z,10.68
2023-03-17T18:42:53.724Z,10.69
2023-03-17T18:45:20.449Z,10.64
2023-03-17T18:47:47.065Z,10.58
2023-03-17T18:50:15.581Z,10.56
2023-03-17T18:52:43.810Z,10.58
2023-03-17T18:55:13.006Z,10.52
2023-03-17T18:57:42.557Z,10.55
2023-03-17T19:00:11.933Z,10.57
2023-03-17T19:02:39.919Z,10.55
2023-03-17T19:05:07.601Z,10.57
2023-03-17T19:07:34.769Z,10.58
2023-03-17T19:10:01.499Z,10.56
2023-03-17T19:12:28.730Z,10.57
2023-03-17T19:14:56.952Z,10.56
2023-03-17T19:17:23.841Z,10.53
2023-03-17T19:19:50.851Z,10.53
2023-03-17T19:22:17.980Z,10.53
2023-03-17T19:24:45.781Z,10.55
2023-03-17T19:27:12.403Z,10.54
2023-03-17T19:29:39.041Z,10.54
2023-03-17T19:32:06.493Z,10.58
2023-03-17T19:34:33.197Z,10.59
2023-03-17T19:37:02.516Z,10.56
2023-03-17T19:39:31.722Z,10.59
2023-03-17T19:41:59.354Z,10.58
2023-03-17T19:44:26.377Z,10.57
2023-03-17T19:46:53.248Z,10.55
2023-03-17T19:49:21.201Z,10.54
2023-03-17T19:51:49.128Z,10.51
2023-03-17T19:54:16.595Z,10.54
2023-03-17T19:56:43.191Z,10.55
2023-03-17T19:59:09.777Z,10.53
2023-03-17T20:01:38.022Z,10.48
2023-03-17T20:04:06.976Z,10.45
2023-03-17T20:06:34.677Z,10.43
2023-03-17T20:09:03.955Z,10.45
2023-03-17T20:11:33.997Z,10.45
2023-03-17T20:14:04.542Z,10.43
2023-03-17T20:16:33.747Z,10.43
2023-03-17T20:19:01.591Z,10.41
2023-03-17T20:21:28.800Z,10.38
2023-03-17T20:23:56.405Z,10.36
2023-03-17T20:26:24.540Z,10.37
2023-03-17T20:28:51.696Z,10.39
2023-03-17T20:31:18.695Z,10.38
2023-03-17T20:33:45.366Z,10.39
2023-03-17T20:36:12.956Z,10.41
2023-03-17T20:38:40.105Z,10.40
2023-03-17T20:41:12.813Z,10.37
2023-03-17T20:43:40.388Z,10.37
2023-03-17T20:46:09.129Z,10.38
2023-03-17T20:48:37.297Z,10.34
2023-03-17T20:51:06.295Z,10.30
2023-03-17T20:53:34.506Z,10.28
2023-03-17T20:56:01.160Z,10.25
2023-03-17T20:58:31.505Z,10.23
2023-03-17T21:00:58.557Z,10.26
2023-03-17T21:03:25.381Z,10.23
2023-03-17T21:05:53.500Z,10.17
2023-03-17T21:08:20.311Z,10.16
2023-03-17T21:10:48.027Z,10.15
2023-03-17T21:13:14.755Z,10.14
2023-03-17T21:15:42.494Z,10.12
2023-03-17T21:18:10.147Z,10.11
2023-03-17T21:20:37.617Z,10.14
2023-03-17T21:23:07.748Z,10.14
2023-03-17T21:25:36.295Z,10.12
2023-03-17T21:28:05.100Z,10.09
2023-03-17T21:30:32.636Z,10.12
2023-03-17T21:33:00.910Z,10.12
2023-03-17T21:35:30.479Z,10.11
2023-03-17T21:37:57.615Z,10.11
2023-03-17T21:40:26.174Z,10.11
2023-03-17T21:42:54.829Z,10.10
2023-03-17T21:45:22.104Z,10.08
2023-03-17T21:47:49.711Z,10.05
2023-03-17T21:50:18.575Z,10.09
2023-03-17T21:52:45.581Z,10.08
2023-03-17T21:55:12.275Z,10.09
2023-03-17T21:57:39.031Z,10.08
2023-03-17T22:00:08.021Z,10.11
2023-03-17T22:02:35.437Z,10.08
2023-03-17T22:05:02.699Z,10.10
2023-03-17T22:07:29.458Z,10.05
2023-03-17T22:09:57.875Z,10.03
2023-03-17T22:12:25.340Z,10.02
2023-03-17T22:14:52.570Z,10.03
2023-03-17T22:17:19.268Z,10.01
2023-03-17T22:19:48.646Z,10.02
2023-03-17T22:22:15.473Z,10.01
2023-03-17T22:24:42.858Z,9.99
2023-03-17T22:27:09.537Z,9.98
2023-03-17T22:29:36.777Z,9.92
2023-03-17T22:32:03.613Z,9.93
2023-03-17T22:34:30.230Z,9.94
2023-03-17T22:36:56.970Z,9.94
2023-03-17T22:39:23.599Z,9.86
2023-03-17T22:41:50.673Z,9.84
2023-03-17T22:44:17.727Z,9.81
2023-03-17T22:46:44.355Z,9.82
2023-03-17T22:49:11.421Z,9.80
2023-03-17T22:51:38.614Z,9.80
2023-03-17T22:54:05.373Z,9.78
2023-03-17T22:56:31.996Z,9.77
2023-03-17T22:58:58.670Z,9.78
2023-03-17T23:01:25.907Z,9.74
2023-03-17T23:03:54.333Z,9.72
2023-03-17T23:06:22.093Z,9.73
2023-03-17T23:08:48.896Z,9.75
2023-03-17T23:11:19.102Z,9.77
2023-03-17T23:13:47.793Z,9.77
2023-03-17T23:16:15.458Z,9.80
2023-03-17T23:18:46.537Z,9.84
2023-03-17T23:21:34.902Z,9.84
2023-03-17T23:24:02.276Z,9.85
2023-03-17T23:26:29.147Z,9.87
2023-03-17T23:28:56.034Z,9.86
2023-03-17T23:31:22.774Z,9.88
2023-03-17T23:33:50.538Z,9.81
2023-03-17T23:36:17.821Z,9.82
2023-03-17T23:38:45.669Z,9.74
2023-03-17T23:41:13.160Z,9.73
2023-03-17T23:43:40.566Z,9.69
2023-03-17T23:46:07.269Z,9.72
2023-03-17T23:48:34.038Z,9.66
2023-03-17T23:51:01.136Z,9.69
2023-03-17T23:53:28.433Z,9.69
2023-03-17T23:55:55.380Z,9.68
2023-03-17T23:58:22.887Z,9.69
